Airfield :
LOGIN :

Register | Disclaimer

   EN    FR    IT 

 










Legend :    VFR   Marginal VFR   IFR   Intensive IFR   Very Intensive IFR
Visi :
Ceiling :
>= 8 km
>= 3000ft
5 to 8 km
1000 to 3000 ft
1500m to 5 km
500 to 1000 ft
800 to 1500m
200 to 500 ft
< 800m
< 200 ft
Symbols :   Thunderstorms  Fog  Heavy snow  Heavy precipitations  Wind > 20 kt
SIGMETs :     Misc.  Thunderstorms  Icing  Turbulence  Mountain Waves  Volcanic Ashes







- Airport Elevation : 1058 ft
- IATA code : SCN


EDDR - Saarbrücken

CURRENT METAR :
  • 101250Z 29008KT 260V320 9999 -SHRA SCT018TCU BKN040 05/02 Q1022 NOSIG

EXPIRED METARs :
  • 101220Z 28010KT 240V300 9999 SCT020TCU SCT044 06/02 Q1022 NOSIG
  • 101150Z 28010KT 9999 SCT020 SCT044 06/02 Q1023 NOSIG
  • 101120Z 27011KT 9999 BKN018 05/02 Q1023 NOSIG
  • 101050Z 29008KT 250V330 9999 SCT018 BKN042 06/02 Q1023 NOSIG
  • 101020Z 28012KT 9999 SCT015 BKN040 05/02 Q1023 NOSIG
  • 100950Z 27012KT 9999 SCT014 05/02 Q1023 NOSIG

TAF TAF EDDR
Valid from the 10 at 12:00 until the 11 at 12:00 UTC


101100Z 1012/1112 27010KT 9999 SCT014
TEMPO 1103/1109 BKN010
No reported NOTAMs for that airfield.



MET'MAP, your aeronautical weather chart ! - Copyright ORBIFLY December 2007 - Disclaimer

ORBIFLY MET'MAP TEAM :

Programming & Development : Alexandra Zaïnal
Concept & Development : Baudouin d'Aumeries
Co-Development & Prog : Marc-Olivier Méhu
Technical & hardware support : Manuel Goepfert

Contact : metmap@orbifly.com




SOURCES & CREDITS :

   NOAA